createdAt,value
2022-12-09T00:01:36.091Z,3.78
2022-12-09T00:04:05.478Z,3.69
2022-12-09T00:07:20.213Z,3.71
2022-12-09T00:09:57.422Z,3.72
2022-12-09T00:12:26.378Z,3.68
2022-12-09T00:14:55.155Z,3.66
2022-12-09T00:17:24.373Z,3.67
2022-12-09T00:19:53.210Z,3.64
2022-12-09T00:22:22.043Z,3.72
2022-12-09T00:24:50.941Z,3.64
2022-12-09T00:27:20.126Z,3.60
2022-12-09T00:29:49.083Z,3.65
2022-12-09T00:32:18.294Z,3.66
2022-12-09T00:34:49.111Z,3.65
2022-12-09T00:37:18.148Z,3.65
2022-12-09T00:39:47.336Z,3.63
2022-12-09T00:42:16.016Z,3.61
2022-12-09T00:44:44.691Z,3.58
2022-12-09T00:47:14.096Z,3.55
2022-12-09T00:49:43.321Z,3.54
2022-12-09T00:52:12.073Z,3.53
2022-12-09T00:54:40.876Z,3.51
2022-12-09T00:57:20.942Z,3.50
2022-12-09T00:59:49.925Z,3.49
2022-12-09T01:02:18.910Z,3.43
2022-12-09T01:04:50.593Z,3.40
2022-12-09T01:07:19.837Z,3.42
2022-12-09T01:09:48.751Z,3.43
2022-12-09T01:12:17.471Z,3.43
2022-12-09T01:14:46.133Z,3.49
2022-12-09T01:17:15.810Z,3.42
2022-12-09T01:19:46.257Z,3.45
2022-12-09T01:22:14.963Z,3.43
2022-12-09T01:24:43.899Z,3.45
2022-12-09T01:27:16.665Z,3.55
2022-12-09T01:29:45.578Z,3.46
2022-12-09T01:32:14.623Z,3.49
2022-12-09T01:34:43.669Z,3.47
2022-12-09T01:37:12.390Z,3.48
2022-12-09T01:39:41.434Z,3.45
2022-12-09T01:42:21.612Z,3.40
2022-12-09T01:45:24.299Z,3.49
2022-12-09T01:47:58.186Z,3.47
2022-12-09T01:50:28.832Z,3.50
2022-12-09T01:52:58.611Z,3.48
2022-12-09T01:55:28.802Z,3.53
2022-12-09T01:57:57.629Z,3.51
2022-12-09T02:00:26.868Z,3.54
2022-12-09T02:02:58.073Z,3.57
2022-12-09T02:05:27.532Z,3.57
2022-12-09T02:08:00.287Z,3.62
2022-12-09T02:10:29.967Z,3.56
2022-12-09T02:13:15.685Z,3.54
2022-12-09T02:15:54.501Z,3.58
2022-12-09T02:18:35.436Z,3.61
2022-12-09T02:21:40.110Z,3.57
2022-12-09T02:24:51.837Z,3.62
2022-12-09T02:27:46.636Z,3.64
2022-12-09T02:30:25.280Z,3.66
2022-12-09T02:33:16.509Z,3.63
2022-12-09T02:35:56.137Z,3.61
2022-12-09T02:38:33.395Z,3.69
2022-12-09T02:41:08.897Z,3.69
2022-12-09T02:43:49.904Z,3.71
2022-12-09T02:46:26.834Z,3.72
2022-12-09T02:49:00.279Z,3.74
2022-12-09T02:51:33.590Z,3.77
2022-12-09T02:54:08.797Z,3.80
2022-12-09T02:56:41.673Z,3.89
2022-12-09T02:59:10.721Z,3.94
2022-12-09T03:01:59.338Z,3.98
2022-12-09T03:04:30.905Z,4.01
2022-12-09T03:07:17.570Z,4.08
2022-12-09T03:09:53.647Z,4.05
2022-12-09T03:12:23.615Z,4.03
2022-12-09T03:14:55.207Z,3.94
2022-12-09T03:17:34.101Z,4.16
2022-12-09T03:20:18.938Z,4.26
2022-12-09T03:22:50.596Z,4.22
2022-12-09T03:25:25.708Z,4.27
2022-12-09T03:28:05.351Z,4.17
2022-12-09T03:30:39.096Z,4.20
2022-12-09T03:33:10.752Z,4.29
2022-12-09T03:35:45.783Z,4.36
2022-12-09T03:38:19.520Z,4.38
2022-12-09T03:40:52.706Z,4.47
2022-12-09T03:43:29.112Z,4.39
2022-12-09T03:45:59.150Z,4.30
2022-12-09T03:48:35.930Z,4.34
2022-12-09T03:51:35.799Z,4.34
2022-12-09T03:54:23.626Z,4.36
2022-12-09T03:56:57.825Z,4.31
2022-12-09T03:59:31.419Z,4.39
2022-12-09T04:02:02.342Z,4.37
2022-12-09T04:04:31.566Z,4.43
2022-12-09T04:07:01.680Z,4.53
2022-12-09T04:09:30.898Z,4.48
2022-12-09T04:11:59.819Z,4.55
2022-12-09T04:14:28.836Z,4.46
2022-12-09T04:16:57.915Z,4.32
2022-12-09T04:19:27.006Z,4.37
2022-12-09T04:21:56.056Z,4.36
2022-12-09T04:24:25.117Z,4.26
2022-12-09T04:26:54.525Z,4.31
2022-12-09T04:29:23.795Z,4.30
2022-12-09T04:31:52.680Z,4.29
2022-12-09T04:34:22.060Z,4.28
2022-12-09T04:36:51.484Z,4.22
2022-12-09T04:39:20.605Z,4.33
2022-12-09T04:41:49.361Z,4.35
2022-12-09T04:44:18.337Z,4.30
2022-12-09T04:46:47.426Z,4.25
2022-12-09T04:49:16.237Z,4.24
2022-12-09T04:51:48.036Z,4.31
2022-12-09T04:54:17.277Z,4.31
2022-12-09T04:56:46.254Z,4.32
2022-12-09T04:59:15.455Z,4.27
2022-12-09T05:01:44.387Z,4.14
2022-12-09T05:04:13.880Z,4.29
2022-12-09T05:06:43.309Z,4.21
2022-12-09T05:09:14.450Z,4.19
2022-12-09T05:11:43.365Z,4.17
2022-12-09T05:14:12.464Z,4.17
2022-12-09T05:16:41.440Z,4.22
2022-12-09T05:19:13.676Z,4.12
2022-12-09T05:21:44.738Z,4.16
2022-12-09T05:24:13.728Z,4.05
2022-12-09T05:26:42.948Z,4.01
2022-12-09T05:29:12.763Z,4.09
2022-12-09T05:31:44.755Z,3.99
2022-12-09T05:34:13.740Z,4.08
2022-12-09T05:36:42.679Z,4.03
2022-12-09T05:39:11.636Z,4.04
2022-12-09T05:41:40.632Z,3.98
2022-12-09T05:44:10.622Z,3.96
2022-12-09T05:46:40.324Z,3.95
2022-12-09T05:49:12.750Z,3.93
2022-12-09T05:51:42.028Z,3.81
2022-12-09T05:54:11.510Z,3.85
2022-12-09T05:56:47.645Z,3.88
2022-12-09T05:59:17.654Z,3.73
2022-12-09T06:01:47.050Z,3.82
2022-12-09T06:04:16.264Z,3.87
2022-12-09T06:06:45.467Z,3.85
2022-12-09T06:09:15.369Z,3.68
2022-12-09T06:11:44.363Z,3.77
2022-12-09T06:14:13.830Z,3.75
2022-12-09T06:16:43.209Z,3.62
2022-12-09T06:19:15.413Z,3.70
2022-12-09T06:21:44.403Z,3.63
2022-12-09T06:24:13.680Z,3.67
2022-12-09T06:26:42.979Z,3.73
2022-12-09T06:29:12.266Z,3.66
2022-12-09T06:31:48.902Z,3.70
2022-12-09T06:34:21.500Z,3.63
2022-12-09T06:36:50.456Z,3.49
2022-12-09T06:39:19.597Z,3.53
2022-12-09T06:41:49.164Z,3.33
2022-12-09T06:44:23.483Z,3.28
2022-12-09T06:46:55.619Z,3.44
2022-12-09T06:49:27.031Z,3.47
2022-12-09T06:51:56.328Z,3.52
2022-12-09T06:54:25.482Z,3.41
2022-12-09T06:56:54.481Z,3.41
2022-12-09T06:59:23.557Z,3.38
2022-12-09T07:01:52.752Z,3.35
2022-12-09T07:04:24.060Z,3.42
2022-12-09T07:06:53.477Z,3.55
2022-12-09T07:09:23.146Z,3.47
2022-12-09T07:11:53.537Z,3.41
2022-12-09T07:14:22.816Z,3.55
2022-12-09T07:16:52.109Z,3.52
2022-12-09T07:19:23.399Z,3.54
2022-12-09T07:21:53.221Z,3.50
2022-12-09T07:24:22.594Z,3.41
2022-12-09T07:26:52.192Z,3.43
2022-12-09T07:29:21.560Z,3.60
2022-12-09T07:31:50.725Z,3.64
2022-12-09T07:34:20.191Z,3.51
2022-12-09T07:36:49.497Z,3.64
2022-12-09T07:39:21.177Z,3.79
2022-12-09T07:41:58.472Z,3.40
2022-12-09T07:44:31.742Z,3.72
2022-12-09T07:47:02.087Z,3.56
2022-12-09T07:49:31.784Z,3.74
2022-12-09T07:52:00.808Z,3.84
2022-12-09T07:54:29.695Z,3.73
2022-12-09T07:56:58.560Z,3.71
2022-12-09T07:59:27.768Z,3.76
2022-12-09T08:02:01.071Z,3.81
2022-12-09T08:04:33.620Z,3.76
2022-12-09T08:07:02.968Z,3.71
2022-12-09T08:09:32.945Z,3.92
2022-12-09T08:12:02.723Z,3.71
2022-12-09T08:14:32.320Z,3.60
2022-12-09T08:17:01.929Z,3.77
2022-12-09T08:19:31.336Z,3.90
2022-12-09T08:22:01.025Z,3.90
2022-12-09T08:24:30.872Z,3.79
2022-12-09T08:27:01.149Z,3.92
2022-12-09T08:29:30.687Z,3.87
2022-12-09T08:31:59.977Z,3.77
2022-12-09T08:34:30.052Z,3.81
2022-12-09T08:37:02.296Z,3.69
2022-12-09T08:39:33.176Z,3.54
2022-12-09T08:42:02.267Z,3.68
2022-12-09T08:44:31.222Z,3.85
2022-12-09T08:47:01.108Z,3.88
2022-12-09T08:49:30.608Z,3.96
2022-12-09T08:51:59.697Z,3.90
2022-12-09T08:54:32.689Z,3.97
2022-12-09T08:57:02.333Z,3.98
2022-12-09T08:59:31.118Z,4.05
2022-12-09T09:02:00.305Z,4.11
2022-12-09T09:04:35.873Z,4.03
2022-12-09T09:07:08.157Z,4.16
2022-12-09T09:09:37.360Z,4.12
2022-12-09T09:12:07.537Z,4.09
2022-12-09T09:14:45.202Z,4.10
2022-12-09T09:17:25.632Z,4.08
2022-12-09T09:19:55.069Z,4.03
2022-12-09T09:22:24.216Z,4.01
2022-12-09T09:24:54.958Z,3.97
2022-12-09T09:27:27.705Z,3.83
2022-12-09T09:29:56.930Z,3.71
2022-12-09T09:32:26.449Z,3.81
2022-12-09T09:34:55.301Z,3.87
2022-12-09T09:37:24.532Z,3.84
2022-12-09T09:39:53.421Z,3.70
2022-12-09T09:42:29.105Z,3.65
2022-12-09T09:44:59.575Z,3.68
2022-12-09T09:47:39.762Z,3.64
2022-12-09T09:50:09.475Z,3.58
2022-12-09T09:52:42.934Z,3.55
2022-12-09T09:55:25.849Z,3.31
2022-12-09T09:58:05.967Z,3.30
2022-12-09T10:00:44.499Z,3.00
2022-12-09T10:03:26.821Z,2.96
2022-12-09T10:05:59.892Z,3.00
2022-12-09T10:08:57.623Z,2.95
2022-12-09T10:11:33.528Z,2.84
2022-12-09T10:14:16.320Z,2.75
2022-12-09T10:16:56.591Z,2.91
2022-12-09T10:19:36.377Z,2.62
2022-12-09T10:22:22.966Z,2.74
2022-12-09T10:24:58.125Z,2.77
2022-12-09T10:27:43.990Z,2.62
2022-12-09T10:30:16.391Z,2.58
2022-12-09T10:32:46.629Z,2.29
2022-12-09T10:35:25.712Z,2.39
2022-12-09T10:37:57.107Z,2.24
2022-12-09T10:40:56.444Z,2.30
2022-12-09T10:43:36.412Z,2.41
2022-12-09T10:46:18.321Z,2.45
2022-12-09T10:48:49.059Z,2.47
2022-12-09T10:51:21.013Z,2.75
2022-12-09T10:54:00.220Z,2.71
2022-12-09T10:56:35.047Z,2.70
2022-12-09T10:59:14.569Z,2.65
2022-12-09T11:01:59.711Z,2.67
2022-12-09T11:04:34.954Z,2.58
2022-12-09T11:07:26.980Z,2.61
2022-12-09T11:10:17.796Z,2.57
2022-12-09T11:12:52.641Z,2.71
2022-12-09T11:15:45.017Z,2.61
2022-12-09T11:18:33.090Z,2.69
2022-12-09T11:21:05.881Z,2.56
2022-12-09T11:23:36.920Z,2.48
2022-12-09T11:26:09.046Z,2.49
2022-12-09T11:28:42.085Z,2.47
2022-12-09T11:31:31.816Z,2.75
2022-12-09T11:34:07.450Z,2.75
2022-12-09T11:36:43.670Z,2.80
2022-12-09T11:39:23.223Z,2.56
2022-12-09T11:42:18.149Z,2.77
2022-12-09T11:45:03.187Z,2.52
2022-12-09T11:48:25.722Z,2.45
2022-12-09T11:50:35.684Z,2.67
2022-12-09T11:53:14.617Z,2.69
2022-12-09T11:55:47.642Z,2.72
2022-12-09T11:58:25.386Z,2.77
2022-12-09T12:01:03.428Z,2.57
2022-12-09T12:03:35.432Z,2.66
2022-12-09T12:06:12.735Z,2.76
2022-12-09T12:08:52.424Z,2.79
2022-12-09T12:11:29.923Z,2.81
2022-12-09T12:14:23.988Z,2.62
2022-12-09T12:17:14.884Z,2.57
2022-12-09T12:19:46.568Z,2.77
2022-12-09T12:22:41.275Z,2.87
2022-12-09T12:25:15.525Z,2.97
2022-12-09T12:28:09.127Z,3.00
2022-12-09T12:30:46.938Z,3.00
2022-12-09T12:34:16.245Z,3.05
2022-12-09T12:37:04.341Z,3.10
2022-12-09T12:40:02.637Z,2.99
2022-12-09T12:43:20.343Z,3.09
2022-12-09T12:46:20.086Z,3.11
2022-12-09T12:49:22.702Z,3.15
2022-12-09T12:52:32.490Z,3.12
2022-12-09T12:55:15.140Z,3.06
2022-12-09T12:58:06.857Z,2.94
2022-12-09T13:01:11.187Z,3.02
2022-12-09T13:04:24.419Z,2.97
2022-12-09T13:06:57.915Z,2.72
2022-12-09T13:10:05.488Z,2.93
2022-12-09T13:12:55.544Z,2.97
2022-12-09T13:15:32.945Z,2.73
2022-12-09T13:18:20.218Z,2.74
2022-12-09T13:20:53.532Z,2.66
2022-12-09T13:23:52.323Z,2.41
2022-12-09T13:26:39.292Z,2.29
2022-12-09T13:29:38.662Z,2.18
2022-12-09T13:32:20.758Z,2.29
2022-12-09T13:34:56.256Z,2.20
2022-12-09T13:37:38.854Z,2.33
2022-12-09T13:40:38.008Z,2.10
2022-12-09T13:43:36.264Z,2.20
2022-12-09T13:46:05.492Z,1.95
2022-12-09T13:48:37.091Z,1.80
2022-12-09T13:51:06.009Z,2.11
2022-12-09T13:53:44.262Z,2.03
2022-12-09T13:56:18.403Z,2.00
2022-12-09T13:58:59.445Z,2.12
2022-12-09T14:01:37.860Z,2.29
2022-12-09T14:04:28.003Z,2.46
2022-12-09T14:07:10.086Z,2.44
2022-12-09T14:09:59.526Z,2.36
2022-12-09T14:12:33.317Z,2.35
2022-12-09T14:15:06.318Z,2.35
2022-12-09T14:17:38.709Z,2.35
2022-12-09T14:20:24.861Z,2.59
2022-12-09T14:23:12.742Z,2.46
2022-12-09T14:25:58.595Z,2.52
2022-12-09T14:28:54.476Z,2.46
2022-12-09T14:31:47.604Z,2.62
2022-12-09T14:34:33.323Z,2.77
2022-12-09T14:37:43.065Z,2.61
2022-12-09T14:40:26.407Z,2.60
2022-12-09T14:43:13.217Z,2.72
2022-12-09T14:46:07.563Z,2.78
2022-12-09T14:48:41.919Z,2.78
2022-12-09T14:51:17.619Z,2.79
2022-12-09T14:54:18.000Z,2.50
2022-12-09T14:56:52.903Z,2.72
2022-12-09T15:19:00.122Z,2.54
2022-12-09T15:21:32.704Z,2.48
2022-12-09T15:24:02.311Z,2.48
2022-12-09T15:26:33.669Z,2.48
2022-12-09T15:29:05.871Z,2.63
2022-12-09T15:31:35.736Z,2.73
2022-12-09T15:40:29.839Z,2.73
2022-12-09T15:43:07.529Z,2.81
2022-12-09T15:54:38.365Z,2.81
2022-12-09T15:57:10.117Z,2.82
2022-12-09T15:59:48.618Z,2.69
2022-12-09T16:02:33.105Z,2.78
2022-12-09T16:05:08.342Z,2.81
2022-12-09T16:07:38.172Z,2.91
2022-12-09T16:10:16.408Z,2.86
2022-12-09T16:12:45.381Z,2.79
2022-12-09T16:15:35.202Z,2.80
2022-12-09T16:18:05.225Z,2.86
2022-12-09T16:20:38.403Z,2.76
2022-12-09T16:23:21.596Z,2.99
2022-12-09T16:25:51.342Z,2.97
2022-12-09T16:28:26.985Z,3.10
2022-12-09T16:31:03.205Z,3.14
2022-12-09T16:33:39.268Z,3.20
2022-12-09T16:36:10.727Z,3.09
2022-12-09T16:38:42.853Z,3.20
2022-12-09T16:44:36.102Z,3.07
2022-12-09T16:47:21.746Z,3.25
2022-12-09T16:49:51.579Z,3.22
2022-12-09T16:52:25.884Z,3.41
2022-12-09T16:54:54.680Z,3.43
2022-12-09T16:57:23.334Z,3.48
2022-12-09T16:59:54.218Z,3.20
2022-12-09T17:02:43.425Z,3.41
2022-12-09T17:05:12.438Z,3.45
2022-12-09T17:07:41.270Z,3.54
2022-12-09T17:10:13.575Z,3.48
2022-12-09T17:12:42.825Z,3.54
2022-12-09T17:15:19.978Z,3.61
2022-12-09T17:17:49.675Z,3.57
2022-12-09T17:20:18.495Z,3.34
2022-12-09T17:22:47.221Z,3.64
2022-12-09T17:25:16.564Z,3.70
2022-12-09T17:27:45.311Z,3.88
2022-12-09T17:30:14.511Z,3.88
2022-12-09T17:32:43.309Z,3.78
2022-12-09T17:35:16.506Z,3.82
2022-12-09T17:37:49.567Z,3.79
2022-12-09T17:40:19.272Z,3.85
2022-12-09T17:42:52.300Z,3.86
2022-12-09T17:45:42.509Z,4.06
2022-12-09T17:48:28.286Z,4.13
2022-12-09T17:50:57.849Z,3.99
2022-12-09T17:53:26.614Z,4.11
2022-12-09T17:56:00.870Z,4.16
2022-12-09T17:58:32.413Z,4.31
2022-12-09T18:01:01.391Z,4.35
2022-12-09T18:03:54.188Z,4.36
2022-12-09T18:06:19.712Z,4.17
2022-12-09T18:08:48.629Z,4.35
2022-12-09T18:11:17.423Z,4.47
2022-12-09T18:13:47.529Z,4.52
2022-12-09T18:16:19.940Z,4.32
2022-12-09T18:18:54.599Z,4.39
2022-12-09T18:21:26.325Z,4.63
2022-12-09T18:23:55.336Z,4.69
2022-12-09T18:26:30.095Z,4.69
2022-12-09T18:29:00.291Z,4.82
2022-12-09T18:31:29.356Z,5.02
2022-12-09T18:33:58.256Z,5.08
2022-12-09T18:36:28.997Z,5.21
2022-12-09T18:39:01.385Z,5.29
2022-12-09T18:41:32.374Z,5.35
2022-12-09T18:44:08.081Z,5.32
2022-12-09T18:46:39.594Z,5.34
2022-12-09T18:49:13.682Z,5.24
2022-12-09T18:51:44.185Z,5.21
2022-12-09T18:54:28.162Z,5.36
2022-12-09T18:56:57.491Z,5.32
2022-12-09T18:59:26.533Z,5.40
2022-12-09T19:01:55.490Z,5.43
2022-12-09T19:04:29.386Z,5.37
2022-12-09T19:07:00.782Z,5.42
2022-12-09T19:09:34.285Z,5.55
2022-12-09T19:12:37.990Z,5.34
2022-12-09T19:14:54.021Z,5.39
2022-12-09T19:17:23.061Z,5.37
2022-12-09T19:19:52.163Z,5.17
2022-12-09T19:22:21.282Z,5.39
2022-12-09T19:24:50.077Z,5.26
2022-12-09T19:27:18.778Z,5.50
2022-12-09T19:29:47.858Z,5.52
2022-12-09T19:32:50.954Z,5.32
2022-12-09T19:35:05.435Z,5.56
2022-12-09T19:37:34.179Z,5.56
2022-12-09T19:40:03.178Z,5.67
2022-12-09T19:42:32.213Z,5.65
2022-12-09T19:45:02.982Z,5.66
2022-12-09T19:47:33.640Z,5.40
2022-12-09T19:50:02.520Z,5.33
2022-12-09T19:52:31.266Z,5.46
2022-12-09T19:55:00.036Z,5.47
2022-12-09T19:57:29.058Z,5.57
2022-12-09T19:59:57.695Z,5.63
2022-12-09T20:02:26.495Z,5.60
2022-12-09T20:04:56.344Z,5.56
2022-12-09T20:07:25.015Z,5.61
2022-12-09T20:09:53.664Z,5.53
2022-12-09T20:12:22.328Z,5.64
2022-12-09T20:14:50.953Z,5.59
2022-12-09T20:17:19.902Z,5.49
2022-12-09T20:19:48.570Z,5.67
2022-12-09T20:22:17.501Z,5.58
2022-12-09T20:24:46.172Z,5.15
2022-12-09T20:27:15.010Z,5.26
2022-12-09T20:29:43.694Z,5.43
2022-12-09T20:32:12.565Z,5.43
2022-12-09T20:34:41.407Z,5.42
2022-12-09T20:37:10.167Z,5.37
2022-12-09T20:39:39.397Z,5.27
2022-12-09T20:42:08.528Z,5.39
2022-12-09T20:44:37.984Z,5.10
2022-12-09T20:47:06.736Z,5.34
2022-12-09T20:49:35.382Z,5.09
2022-12-09T20:52:04.205Z,5.30
2022-12-09T20:54:32.817Z,5.46
2022-12-09T20:57:01.549Z,5.40
2022-12-09T20:59:30.423Z,5.36
2022-12-09T21:01:59.169Z,5.40
2022-12-09T21:04:28.053Z,5.28
2022-12-09T21:06:56.780Z,5.40
2022-12-09T21:09:27.836Z,5.34
2022-12-09T21:11:57.683Z,5.58
2022-12-09T21:14:32.482Z,5.67
2022-12-09T21:17:01.754Z,5.80
2022-12-09T21:19:33.041Z,5.66
2022-12-09T21:22:03.006Z,5.60
2022-12-09T21:24:31.725Z,5.66
2022-12-09T21:27:01.675Z,5.60
2022-12-09T21:29:32.395Z,5.53
2022-12-09T21:32:02.253Z,5.62
2022-12-09T21:34:31.320Z,5.61
2022-12-09T21:36:59.993Z,5.47
2022-12-09T21:39:29.511Z,5.67
2022-12-09T21:41:58.163Z,5.69
2022-12-09T21:44:28.054Z,5.49
2022-12-09T21:46:57.111Z,5.66
2022-12-09T21:49:25.951Z,5.64
2022-12-09T21:51:54.988Z,5.70
2022-12-09T21:54:23.798Z,5.88
2022-12-09T21:56:53.072Z,5.90
2022-12-09T21:59:22.138Z,5.65
2022-12-09T22:02:00.226Z,5.64
2022-12-09T22:04:38.103Z,5.82
2022-12-09T22:07:10.287Z,6.03
2022-12-09T22:09:42.371Z,6.04
2022-12-09T22:12:11.218Z,5.97
2022-12-09T22:14:44.377Z,5.78
2022-12-09T22:17:24.125Z,5.71
2022-12-09T22:21:07.736Z,5.87
2022-12-09T22:23:08.127Z,5.86
2022-12-09T22:25:39.373Z,5.90
2022-12-09T22:28:08.147Z,5.88
2022-12-09T22:30:37.590Z,5.95
2022-12-09T22:33:06.701Z,5.69
2022-12-09T22:35:35.751Z,5.80
2022-12-09T22:38:11.695Z,5.81
2022-12-09T22:40:43.251Z,5.66
2022-12-09T22:43:13.181Z,5.87
2022-12-09T22:45:42.321Z,5.83
2022-12-09T22:48:11.567Z,5.70
2022-12-09T22:50:42.720Z,5.66
2022-12-09T22:53:14.978Z,5.63
2022-12-09T22:55:48.428Z,5.57
2022-12-09T22:58:17.388Z,5.64
2022-12-09T23:00:46.487Z,5.51
2022-12-09T23:03:15.295Z,5.51
2022-12-09T23:05:44.550Z,5.43
2022-12-09T23:08:13.545Z,5.31
2022-12-09T23:10:42.746Z,5.31
2022-12-09T23:13:11.479Z,5.26
2022-12-09T23:15:40.257Z,5.05
2022-12-09T23:18:09.092Z,5.06
2022-12-09T23:20:37.795Z,4.83
2022-12-09T23:23:06.432Z,5.00
2022-12-09T23:25:35.294Z,5.06
2022-12-09T23:28:05.157Z,5.05
2022-12-09T23:30:35.310Z,4.97
2022-12-09T23:33:05.740Z,4.94
2022-12-09T23:35:39.331Z,4.94
2022-12-09T23:38:08.251Z,4.94
2022-12-09T23:40:39.275Z,5.00
2022-12-09T23:43:08.214Z,5.04
2022-12-09T23:45:37.250Z,5.20
2022-12-09T23:48:06.262Z,5.13
2022-12-09T23:50:34.894Z,5.13
2022-12-09T23:53:03.653Z,5.20
2022-12-09T23:55:33.851Z,5.14
2022-12-09T23:58:02.855Z,5.13
